Time;durP1;ratioP1;P1;durP2;ratioP2;P2;SDS_P1;SDS_P2;PMS_P1;PMS_P2;Temp;Humidity;BMP_temperature;BMP_pressure;BME280_temperature;BME280_humidity;BME280_pressure;Samples;Min_cycle;Max_cycle;Signal;HPM_P1;HPM_P2
2021/07/10 00:01:01;;;;;;;6.00;3.60;;;16.60;99.90;;;;;;4937163;29;20040;-79
2021/07/10 00:03:27;;;;;;;6.13;3.80;;;16.60;99.90;;;;;;4954434;29;20028;-80
2021/07/10 00:05:52;;;;;;;3.75;3.35;;;16.60;99.90;;;;;;4937486;29;20074;-80
2021/07/10 00:08:19;;;;;;;5.00;3.35;;;16.70;99.90;;;;;;4937479;29;20030;-80
2021/07/10 00:10:44;;;;;;;4.63;3.22;;;16.80;99.90;;;;;;4954078;29;20086;-80
2021/07/10 00:13:10;;;;;;;5.40;3.92;;;16.90;99.90;;;;;;4937440;29;20031;-80
2021/07/10 00:15:36;;;;;;;4.05;3.65;;;16.80;99.90;;;;;;4937282;29;20027;-80
2021/07/10 00:18:02;;;;;;;3.38;3.17;;;16.90;99.90;;;;;;4937419;29;20392;-80
2021/07/10 00:20:27;;;;;;;5.63;3.33;;;16.90;99.90;;;;;;4954363;29;20035;-80
2021/07/10 00:22:53;;;;;;;4.68;3.00;;;16.90;99.90;;;;;;4955525;28;20042;-80
2021/07/10 00:25:19;;;;;;;5.13;3.17;;;17.00;99.90;;;;;;4954581;29;20031;-79
2021/07/10 00:27:47;;;;;;;3.50;2.67;;;17.10;99.90;;;;;;4937227;29;20467;-79
2021/07/10 00:30:14;;;;;;;5.30;3.40;;;17.10;99.90;;;;;;4937116;29;20039;-79
2021/07/10 00:32:40;;;;;;;6.15;2.90;;;17.10;99.90;;;;;;4954352;29;20027;-79
2021/07/10 00:35:07;;;;;;;7.03;3.00;;;17.10;99.90;;;;;;4937171;29;20028;-79
2021/07/10 00:37:33;;;;;;;5.63;3.20;;;17.10;99.90;;;;;;4956102;28;20027;-80
2021/07/10 00:39:58;;;;;;;5.15;2.88;;;17.10;99.90;;;;;;4947239;28;20038;-79
2021/07/10 00:42:24;;;;;;;3.70;2.97;;;17.10;99.90;;;;;;4959836;28;20015;-81
2021/07/10 00:44:50;;;;;;;2.63;2.40;;;17.10;99.90;;;;;;4959774;28;20027;-79
2021/07/10 00:47:17;;;;;;;6.28;2.90;;;17.10;99.90;;;;;;4977284;28;20097;-79
2021/07/10 00:49:42;;;;;;;3.72;3.08;;;17.10;99.90;;;;;;4959550;28;20026;-76
2021/07/10 00:52:08;;;;;;;3.63;3.25;;;17.00;99.90;;;;;;4959684;28;20027;-77
2021/07/10 00:54:35;;;;;;;7.03;3.63;;;16.90;99.90;;;;;;4975574;28;20473;-79
2021/07/10 00:57:02;;;;;;;6.65;3.83;;;16.80;99.90;;;;;;4975761;28;20104;-79
2021/07/10 00:59:29;;;;;;;8.98;3.90;;;16.60;99.90;;;;;;4959367;28;20085;-79
2021/07/10 01:01:55;;;;;;;4.05;3.63;;;16.50;99.90;;;;;;4969226;28;20031;-80
2021/07/10 01:04:22;;;;;;;6.05;4.90;;;16.50;99.90;;;;;;4957495;28;20050;-79
2021/07/10 01:06:48;;;;;;;5.05;3.90;;;16.50;99.90;;;;;;4957409;29;20031;-77
2021/07/10 01:09:15;;;;;;;5.82;4.32;;;16.40;99.90;;;;;;4957453;29;20027;-79
2021/07/10 01:11:42;;;;;;;5.85;4.22;;;16.40;99.90;;;;;;4940116;29;20023;-80
2021/07/10 01:14:08;;;;;;;4.13;3.35;;;16.40;99.90;;;;;;4957373;29;20038;-79
2021/07/10 01:16:33;;;;;;;8.07;3.95;;;16.40;99.90;;;;;;4957316;29;20035;-80
2021/07/10 01:18:59;;;;;;;6.53;4.68;;;16.40;99.90;;;;;;4957133;29;20058;-80
2021/07/10 01:21:25;;;;;;;5.88;4.50;;;16.40;99.90;;;;;;4940018;29;20396;-81
2021/07/10 01:23:51;;;;;;;10.18;5.30;;;16.40;99.90;;;;;;4949616;28;20111;-79
2021/07/10 01:26:18;;;;;;;7.40;5.43;;;16.40;99.90;;;;;;4959171;28;20027;-79
2021/07/10 01:28:44;;;;;;;7.55;4.82;;;16.30;99.90;;;;;;4958886;28;20062;-79
2021/07/10 01:31:10;;;;;;;6.55;4.88;;;16.30;99.90;;;;;;4963848;28;20528;-79
2021/07/10 01:33:36;;;;;;;7.65;5.25;;;16.20;99.90;;;;;;4939628;29;20041;-80
2021/07/10 01:36:02;;;;;;;4.60;4.20;;;16.10;99.90;;;;;;4957163;29;20028;-79
2021/07/10 01:38:28;;;;;;;4.93;3.85;;;16.00;99.90;;;;;;4956831;29;20070;-80
2021/07/10 01:40:54;;;;;;;5.55;4.25;;;16.00;99.90;;;;;;4939605;29;20043;-79
2021/07/10 01:43:20;;;;;;;5.78;4.32;;;16.10;99.90;;;;;;4939627;29;20466;-76
2021/07/10 01:45:46;;;;;;;4.90;3.85;;;16.00;99.90;;;;;;4939519;29;20023;-76
2021/07/10 01:48:13;;;;;;;7.95;4.53;;;16.00;99.90;;;;;;4938878;28;20058;-76
2021/07/10 01:50:40;;;;;;;7.45;5.05;;;16.10;99.90;;;;;;4957043;28;20389;-77
2021/07/10 01:53:06;;;;;;;5.85;5.07;;;16.00;99.90;;;;;;4939498;29;20031;-76
2021/07/10 01:55:32;;;;;;;6.72;4.45;;;16.00;99.90;;;;;;4956559;29;20026;-77
2021/07/10 01:57:59;;;;;;;8.60;5.60;;;16.00;99.90;;;;;;4956696;29;20027;-77
2021/07/10 02:00:28;;;;;;;7.18;5.20;;;16.00;99.90;;;;;;4956251;29;20032;-76
2021/07/10 02:02:55;;;;;;;6.15;5.53;;;16.00;99.90;;;;;;4956495;29;20570;-77
2021/07/10 02:05:24;;;;;;;5.32;4.57;;;16.00;99.90;;;;;;4956484;29;20033;-76
2021/07/10 02:07:51;;;;;;;4.95;3.92;;;15.90;99.90;;;;;;4939151;29;20019;-77
2021/07/10 02:10:19;;;;;;;6.05;4.53;;;15.90;99.90;;;;;;4956402;29;20027;-77
2021/07/10 02:12:47;;;;;;;8.00;4.55;;;15.90;99.90;;;;;;4938982;29;20020;-76
2021/07/10 02:15:13;;;;;;;6.57;5.10;;;15.90;99.90;;;;;;4939043;29;20030;-76
2021/07/10 02:17:42;;;;;;;9.05;4.03;;;15.80;99.90;;;;;;4950291;28;20033;-77
2021/07/10 02:20:09;;;;;;;13.77;3.83;;;15.80;99.90;;;;;;4958044;28;20035;-77
2021/07/10 02:22:36;;;;;;;5.03;3.15;;;15.80;99.90;;;;;;4958272;28;20075;-76
2021/07/10 02:25:05;;;;;;;6.03;3.78;;;15.80;99.90;;;;;;4975420;28;20058;-77
2021/07/10 02:27:31;;;;;;;5.32;3.60;;;15.80;99.90;;;;;;4958189;28;20026;-77
2021/07/10 02:29:56;;;;;;;10.15;3.88;;;15.80;99.90;;;;;;4975225;28;20027;-77
2021/07/10 02:32:22;;;;;;;8.82;3.58;;;15.80;99.90;;;;;;4957913;28;20025;-77
2021/07/10 02:34:47;;;;;;;4.72;3.38;;;15.80;99.90;;;;;;4957801;28;20126;-77
2021/07/10 02:37:13;;;;;;;4.00;2.78;;;15.90;99.90;;;;;;4957756;28;20522;-77
2021/07/10 02:39:39;;;;;;;6.25;3.85;;;15.90;99.90;;;;;;4957611;28;20401;-77
2021/07/10 02:42:05;;;;;;;4.50;3.58;;;15.90;99.90;;;;;;4975092;28;20019;-79
2021/07/10 02:44:30;;;;;;;6.88;3.60;;;15.90;99.90;;;;;;4957508;28;20508;-77
2021/07/10 02:46:56;;;;;;;3.20;2.88;;;15.80;99.90;;;;;;4971456;28;20024;-78
2021/07/10 02:49:22;;;;;;;4.82;3.97;;;15.90;99.90;;;;;;4955544;28;20102;-77
2021/07/10 02:51:48;;;;;;;5.78;3.72;;;15.90;99.90;;;;;;4938329;29;20362;-77
2021/07/10 02:54:14;;;;;;;8.80;3.47;;;15.90;99.90;;;;;;4938222;29;20062;-77
2021/07/10 02:56:39;;;;;;;7.75;3.75;;;15.90;99.90;;;;;;4938216;29;20015;-78
2021/07/10 02:59:05;;;;;;;10.65;3.78;;;15.90;99.90;;;;;;4938089;29;20031;-77
2021/07/10 03:01:31;;;;;;;4.70;3.30;;;15.90;99.90;;;;;;4955184;28;20035;-77
2021/07/10 03:03:56;;;;;;;7.97;3.50;;;15.90;99.90;;;;;;4955376;29;20622;-77
2021/07/10 03:06:22;;;;;;;6.88;3.63;;;15.90;99.90;;;;;;4938180;29;20035;-77
2021/07/10 03:08:48;;;;;;;6.78;3.85;;;15.80;99.90;;;;;;4955246;29;20031;-77
2021/07/10 03:11:14;;;;;;;5.60;3.65;;;15.80;99.90;;;;;;4955363;29;20031;-78
2021/07/10 03:13:40;;;;;;;7.68;4.20;;;15.80;99.90;;;;;;4937880;29;20023;-78
2021/07/10 03:16:07;;;;;;;7.35;4.05;;;15.80;99.90;;;;;;4937858;29;20034;-77
2021/07/10 03:18:33;;;;;;;7.47;4.38;;;15.90;99.90;;;;;;4953090;28;20484;-78
2021/07/10 03:20:59;;;;;;;6.13;3.42;;;15.90;99.90;;;;;;4974351;28;20492;-78
2021/07/10 03:23:24;;;;;;;6.22;4.03;;;15.80;99.90;;;;;;4974344;28;20025;-78
2021/07/10 03:25:50;;;;;;;8.90;4.20;;;15.80;99.90;;;;;;4957032;28;20106;-78
2021/07/10 03:28:16;;;;;;;8.85;4.32;;;15.80;99.90;;;;;;4974285;28;20056;-78
2021/07/10 03:30:42;;;;;;;5.72;3.95;;;15.80;99.90;;;;;;4956901;28;20481;-77
2021/07/10 03:33:08;;;;;;;10.23;3.67;;;15.90;99.90;;;;;;4956960;28;20038;-77
2021/07/10 03:35:33;;;;;;;6.72;4.47;;;15.90;99.90;;;;;;4956901;28;20119;-77
2021/07/10 03:38:00;;;;;;;6.00;4.45;;;15.90;99.90;;;;;;4974308;28;20023;-77
2021/07/10 03:40:27;;;;;;;9.98;4.50;;;15.90;99.90;;;;;;4956677;28;20389;-77
2021/07/10 03:42:53;;;;;;;12.70;4.72;;;15.90;99.90;;;;;;4956777;28;20027;-78
2021/07/10 03:45:19;;;;;;;5.22;3.67;;;15.90;99.90;;;;;;4951005;28;20035;-77
2021/07/10 03:47:46;;;;;;;7.22;3.20;;;15.80;99.90;;;;;;4954778;29;20035;-77
2021/07/10 03:50:13;;;;;;;4.95;3.92;;;15.80;99.90;;;;;;4937532;29;20027;-77
2021/07/10 03:52:39;;;;;;;5.90;3.72;;;15.80;99.90;;;;;;4937557;29;20042;-77
2021/07/10 03:55:08;;;;;;;8.57;4.25;;;15.90;99.90;;;;;;4954746;29;20381;-77
2021/07/10 03:57:34;;;;;;;6.13;3.53;;;15.90;99.90;;;;;;4937550;29;20154;-77
2021/07/10 04:00:00;;;;;;;5.40;3.13;;;15.90;99.90;;;;;;4954653;29;20067;-77
2021/07/10 04:02:26;;;;;;;6.90;3.92;;;15.90;99.90;;;;;;4954726;29;20027;-77
2021/07/10 04:04:52;;;;;;;4.18;3.78;;;15.90;99.90;;;;;;4954623;29;20027;-77
2021/07/10 04:07:17;;;;;;;5.07;3.70;;;15.80;99.90;;;;;;4954759;29;20028;-77
2021/07/10 04:09:43;;;;;;;3.90;3.47;;;15.90;99.90;;;;;;4937325;29;20027;-77
2021/07/10 04:12:09;;;;;;;6.70;3.28;;;15.90;99.90;;;;;;4969627;28;20109;-77
2021/07/10 04:14:36;;;;;;;4.63;3.38;;;15.90;99.90;;;;;;4977699;28;20034;-77
2021/07/10 04:17:03;;;;;;;5.45;4.10;;;15.90;99.90;;;;;;4976803;28;20109;-77
2021/07/10 04:19:29;;;;;;;7.97;4.80;;;16.00;99.90;;;;;;4960398;28;20042;-77
2021/07/10 04:21:54;;;;;;;5.07;4.35;;;16.00;99.90;;;;;;4960326;28;20404;-77
2021/07/10 04:24:20;;;;;;;6.45;4.63;;;16.00;99.90;;;;;;4960229;28;20369;-77
2021/07/10 04:26:46;;;;;;;4.63;4.15;;;16.10;99.90;;;;;;4959982;28;20420;-78
2021/07/10 04:29:12;;;;;;;5.80;4.03;;;16.20;99.90;;;;;;4959997;28;20039;-77
2021/07/10 04:31:37;;;;;;;5.13;4.00;;;16.20;99.90;;;;;;4960067;28;20369;-78
2021/07/10 04:34:03;;;;;;;4.32;3.95;;;16.30;99.90;;;;;;4977357;28;20468;-77
2021/07/10 04:36:28;;;;;;;4.07;3.67;;;16.50;99.90;;;;;;4960047;28;20038;-77
2021/07/10 04:38:54;;;;;;;5.35;3.72;;;16.70;99.90;;;;;;4959952;28;20030;-77
2021/07/10 04:41:20;;;;;;;4.35;3.58;;;16.90;99.90;;;;;;4977335;28;20049;-78
2021/07/10 04:43:45;;;;;;;4.15;3.08;;;17.20;99.90;;;;;;4959835;28;20657;-77
2021/07/10 04:46:11;;;;;;;5.95;3.15;;;17.50;99.90;;;;;;4962540;28;20082;-78
2021/07/10 04:48:37;;;;;;;2.63;2.42;;;17.80;99.90;;;;;;4940553;29;20058;-77
2021/07/10 04:51:03;;;;;;;2.85;2.53;;;17.90;99.90;;;;;;4957811;29;20019;-77
2021/07/10 04:53:28;;;;;;;5.07;3.20;;;17.80;99.90;;;;;;4957337;29;20041;-79
2021/07/10 04:55:54;;;;;;;2.67;2.25;;;17.90;99.90;;;;;;4940407;29;20042;-77
2021/07/10 04:58:21;;;;;;;4.88;2.30;;;17.80;99.90;;;;;;4940466;29;20110;-77
2021/07/10 05:00:49;;;;;;;2.30;2.13;;;17.60;99.90;;;;;;4940320;29;20086;-77
2021/07/10 05:03:14;;;;;;;3.15;1.90;;;17.70;99.90;;;;;;4940400;29;20429;-77
2021/07/10 05:05:40;;;;;;;2.55;2.25;;;17.70;99.90;;;;;;4940202;29;20066;-79
2021/07/10 05:08:06;;;;;;;3.15;2.00;;;17.80;99.90;;;;;;4957436;29;20488;-77
2021/07/10 05:10:33;;;;;;;4.47;2.28;;;17.90;99.90;;;;;;4957289;29;20027;-77
2021/07/10 05:12:58;;;;;;;1.95;1.80;;;17.80;99.90;;;;;;4957394;29;20023;-78
2021/07/10 05:15:24;;;;;;;1.92;1.75;;;17.80;99.90;;;;;;4947486;28;20476;-77
2021/07/10 05:17:49;;;;;;;1.45;1.35;;;17.70;99.90;;;;;;4959266;28;20404;-78
2021/07/10 05:20:15;;;;;;;3.05;2.55;;;17.70;99.90;;;;;;4976517;28;20117;-77
2021/07/10 05:22:41;;;;;;;75.82;33.63;;;17.60;99.90;;;;;;4976413;28;20023;-78
2021/07/10 05:25:09;;;;;;;42.85;28.20;;;17.70;99.90;;;;;;4959094;28;20022;-77
2021/07/10 05:27:35;;;;;;;11.65;8.48;;;17.80;99.90;;;;;;4958921;28;20015;-77
2021/07/10 05:30:04;;;;;;;10.45;7.50;;;17.80;99.90;;;;;;4976800;28;20125;-77
2021/07/10 05:32:29;;;;;;;19.85;13.85;;;17.90;99.90;;;;;;4959140;28;20019;-77
2021/07/10 05:34:55;;;;;;;23.00;17.25;;;17.80;99.90;;;;;;4976286;28;20034;-77
2021/07/10 05:37:20;;;;;;;17.88;11.55;;;17.90;99.90;;;;;;4976310;28;20027;-79
2021/07/10 05:39:46;;;;;;;6.25;5.63;;;18.00;99.90;;;;;;4987754;28;20133;-78
2021/07/10 05:42:12;;;;;;;5.03;4.00;;;18.10;99.90;;;;;;4991194;28;20023;-77
2021/07/10 05:44:37;;;;;;;3.78;3.30;;;18.20;99.90;;;;;;4964782;28;20031;-78
2021/07/10 05:47:04;;;;;;;5.65;3.88;;;18.30;99.90;;;;;;4966975;28;20018;-78
2021/07/10 05:49:30;;;;;;;2.25;2.13;;;18.40;99.90;;;;;;4986440;28;20030;-78
2021/07/10 05:51:56;;;;;;;2.17;1.98;;;18.30;99.90;;;;;;4976624;28;20023;-78
2021/07/10 05:54:21;;;;;;;2.45;2.20;;;18.30;99.90;;;;;;4976023;28;20034;-77
2021/07/10 05:56:47;;;;;;;1.73;1.48;;;18.30;99.90;;;;;;4975976;28;20019;-78
2021/07/10 05:59:13;;;;;;;2.67;1.40;;;18.40;99.90;;;;;;4975528;28;20026;-78
2021/07/10 06:01:38;;;;;;;2.38;1.65;;;18.30;97.30;;;;;;4975161;28;20019;-77
2021/07/10 06:04:04;;;;;;;4.03;1.50;;;18.30;99.90;;;;;;4957735;28;20118;-77
2021/07/10 06:06:30;;;;;;;2.90;1.50;;;18.30;98.90;;;;;;4975110;28;20093;-78
2021/07/10 06:08:55;;;;;;;1.65;1.55;;;18.40;99.90;;;;;;4966107;28;20038;-77
2021/07/10 06:11:21;;;;;;;1.52;1.42;;;18.50;99.70;;;;;;4970182;28;20034;-77
2021/07/10 06:13:46;;;;;;;4.88;1.63;;;18.60;98.30;;;;;;4988674;28;20030;-77
2021/07/10 06:16:13;;;;;;;1.73;1.67;;;18.60;97.20;;;;;;4965624;28;20104;-77
2021/07/10 06:18:38;;;;;;;1.95;1.70;;;18.70;96.50;;;;;;4977385;28;20480;-77
2021/07/10 06:21:04;;;;;;;1.50;1.40;;;18.60;95.00;;;;;;4985501;28;20097;-78
2021/07/10 06:23:30;;;;;;;1.60;1.50;;;18.80;99.20;;;;;;4989122;28;20073;-77
2021/07/10 06:25:55;;;;;;;1.00;1.00;;;19.00;95.30;;;;;;4969672;28;20452;-78
2021/07/10 06:28:21;;;;;;;1.95;1.10;;;19.00;91.70;;;;;;4986846;28;20031;-76
2021/07/10 06:30:47;;;;;;;1.20;1.20;;;19.00;89.80;;;;;;4984755;28;20106;-77
2021/07/10 06:33:13;;;;;;;1.50;0.82;;;19.20;94.80;;;;;;4967455;28;20030;-78
2021/07/10 06:35:39;;;;;;;2.28;1.10;;;19.20;85.20;;;;;;4992730;28;20427;-78
2021/07/10 06:38:04;;;;;;;0.85;0.85;;;19.20;86.20;;;;;;4994601;28;20026;-79
2021/07/10 06:40:30;;;;;;;1.13;1.00;;;19.20;86.10;;;;;;4976822;28;20065;-78
2021/07/10 06:42:56;;;;;;;1.05;1.00;;;19.30;84.20;;;;;;4994485;28;20026;-78
2021/07/10 06:45:22;;;;;;;0.98;0.98;;;19.60;86.00;;;;;;4993203;28;20069;-78
2021/07/10 06:47:49;;;;;;;1.52;0.90;;;19.60;84.10;;;;;;4976957;28;20232;-78
2021/07/10 06:50:18;;;;;;;2.22;1.00;;;19.40;81.70;;;;;;4976838;28;20479;-78
2021/07/10 06:52:44;;;;;;;4.03;0.88;;;19.30;82.60;;;;;;4977057;28;20068;-80
2021/07/10 06:55:12;;;;;;;1.30;1.20;;;19.40;85.20;;;;;;4976722;28;20022;-79
2021/07/10 06:57:37;;;;;;;0.90;0.90;;;19.40;86.70;;;;;;4990533;28;20361;-78
2021/07/10 07:00:08;;;;;;;1.50;1.20;;;19.50;83.10;;;;;;4964041;28;20038;-78
2021/07/10 07:02:34;;;;;;;1.35;1.25;;;19.40;80.90;;;;;;4966333;28;20034;-78
2021/07/10 07:04:59;;;;;;;1.52;1.42;;;19.50;80.60;;;;;;4964625;28;20062;-77
2021/07/10 07:07:25;;;;;;;2.63;1.10;;;19.60;81.50;;;;;;4971834;28;20027;-78
2021/07/10 07:09:51;;;;;;;1.67;0.90;;;19.80;80.90;;;;;;4972024;28;20045;-77
2021/07/10 07:12:16;;;;;;;3.67;0.90;;;19.80;80.50;;;;;;4972798;28;20110;-77
2021/07/10 07:14:42;;;;;;;1.20;0.73;;;20.00;80.40;;;;;;4969995;28;20069;-78
2021/07/10 07:17:07;;;;;;;1.90;0.90;;;20.10;77.50;;;;;;4955378;28;20078;-78
2021/07/10 07:19:33;;;;;;;1.55;1.00;;;20.10;76.30;;;;;;4972517;28;20428;-78
2021/07/10 07:22:02;;;;;;;1.30;0.85;;;20.20;74.50;;;;;;4971885;28;20126;-77
2021/07/10 07:24:27;;;;;;;1.20;0.85;;;20.10;74.20;;;;;;4955415;28;20469;-77
2021/07/10 07:26:54;;;;;;;0.82;0.82;;;19.70;76.80;;;;;;4956068;28;20029;-77
2021/07/10 07:29:19;;;;;;;1.35;1.08;;;19.80;76.60;;;;;;4973992;28;20042;-77
2021/07/10 07:31:45;;;;;;;1.77;1.05;;;19.90;76.70;;;;;;4972301;28;20035;-78
2021/07/10 07:34:11;;;;;;;0.95;0.95;;;19.60;78.60;;;;;;4974233;28;20026;-76
2021/07/10 07:36:38;;;;;;;0.77;0.77;;;20.00;79.20;;;;;;4974234;28;20469;-77
2021/07/10 07:39:06;;;;;;;1.10;1.00;;;19.80;76.50;;;;;;4956852;28;20528;-78
2021/07/10 07:41:33;;;;;;;2.42;1.08;;;20.00;76.80;;;;;;4956706;28;20395;-79
2021/07/10 07:43:58;;;;;;;1.40;1.30;;;20.30;78.90;;;;;;4964927;28;20027;-77
2021/07/10 07:46:24;;;;;;;1.33;1.23;;;20.30;78.80;;;;;;4943570;28;20396;-77
2021/07/10 07:48:49;;;;;;;0.98;0.98;;;20.40;74.40;;;;;;4964968;28;20024;-78
2021/07/10 07:51:15;;;;;;;1.13;1.02;;;20.60;76.30;;;;;;4946387;28;21500;-78
2021/07/10 07:53:48;;;;;;;1.08;1.05;;;20.80;74.70;;;;;;4963795;28;20023;-78
2021/07/10 07:56:14;;;;;;;1.55;1.08;;;21.00;74.50;;;;;;4961891;28;20043;-78
2021/07/10 07:58:41;;;;;;;1.20;1.10;;;21.00;71.90;;;;;;4963372;28;20027;-79
2021/07/10 08:01:08;;;;;;;1.30;1.20;;;20.70;72.80;;;;;;4976314;28;20043;-79
2021/07/10 08:03:34;;;;;;;1.75;1.15;;;20.80;72.50;;;;;;4946339;28;20029;-77
2021/07/10 08:05:59;;;;;;;1.50;1.40;;;20.90;72.30;;;;;;4953620;28;20027;-77
2021/07/10 08:08:25;;;;;;;1.40;1.30;;;21.10;72.10;;;;;;4952965;29;20114;-78
2021/07/10 08:10:51;;;;;;;2.13;1.20;;;21.20;69.90;;;;;;4952189;29;20031;-78
2021/07/10 08:13:16;;;;;;;1.40;1.30;;;21.40;71.00;;;;;;4955878;28;20027;-77
2021/07/10 08:15:42;;;;;;;4.97;1.90;;;21.50;69.20;;;;;;4943506;28;20500;-77
2021/07/10 08:18:08;;;;;;;1.30;1.00;;;21.20;67.50;;;;;;4961577;28;20038;-77
2021/07/10 08:20:35;;;;;;;0.80;0.80;;;21.30;68.60;;;;;;4962917;28;20034;-77
2021/07/10 08:23:01;;;;;;;1.92;0.80;;;21.40;69.70;;;;;;4966631;28;20070;-77
2021/07/10 08:25:27;;;;;;;0.98;0.77;;;21.10;66.40;;;;;;4987658;28;20062;-79
2021/07/10 08:27:53;;;;;;;0.63;0.60;;;21.30;68.90;;;;;;4991608;28;20025;-79
2021/07/10 08:30:19;;;;;;;2.95;0.80;;;21.60;66.80;;;;;;4989333;28;20423;-77
2021/07/10 08:32:47;;;;;;;0.70;0.70;;;21.90;68.00;;;;;;4954205;28;20027;-77
2021/07/10 08:35:14;;;;;;;1.65;0.90;;;21.90;64.50;;;;;;4954766;29;20031;-77
2021/07/10 08:37:40;;;;;;;0.70;0.70;;;21.90;66.00;;;;;;4954354;29;20034;-80
2021/07/10 08:40:07;;;;;;;0.80;0.80;;;21.90;65.50;;;;;;4956767;28;20039;-78
2021/07/10 08:42:33;;;;;;;0.77;0.77;;;21.70;64.70;;;;;;4954299;29;20469;-79
2021/07/10 08:45:03;;;;;;;1.27;0.85;;;21.80;66.80;;;;;;4936957;29;20023;-79
2021/07/10 08:47:30;;;;;;;0.93;0.93;;;22.00;64.60;;;;;;4936792;29;20028;-79
2021/07/10 08:49:57;;;;;;;0.60;0.60;;;22.20;64.70;;;;;;4936861;29;20031;-79
2021/07/10 08:52:24;;;;;;;1.67;0.70;;;22.30;64.10;;;;;;4953000;28;20024;-79
2021/07/10 08:54:49;;;;;;;3.85;0.85;;;22.50;64.10;;;;;;4934509;29;20030;-81
2021/07/10 08:57:17;;;;;;;1.77;0.70;;;22.70;63.40;;;;;;4934169;28;20114;-80
2021/07/10 08:59:43;;;;;;;0.70;0.70;;;22.80;64.60;;;;;;4936410;29;20034;-80
2021/07/10 09:02:09;;;;;;;1.48;0.60;;;22.90;62.20;;;;;;4936925;28;20024;-80
2021/07/10 09:04:35;;;;;;;0.50;0.50;;;23.00;62.60;;;;;;4936692;29;20031;-80
2021/07/10 09:07:01;;;;;;;0.73;0.73;;;23.20;60.20;;;;;;4936691;29;20019;-80
2021/07/10 09:09:46;;;;;;;1.30;0.93;;;23.40;61.90;;;;;;4937141;29;20025;-80
2021/07/10 09:12:13;;;;;;;4.00;1.90;;;23.20;59.30;;;;;;4955393;29;20031;-80
2021/07/10 09:14:40;;;;;;;5.50;2.00;;;23.10;59.00;;;;;;4956873;29;20470;-80
2021/07/10 09:17:17;;;;;;;6.07;3.15;;;23.60;60.40;;;;;;4939876;29;20449;-80
2021/07/10 09:19:43;;;;;;;5.57;2.35;;;23.50;58.50;;;;;;4939913;29;20122;-80
2021/07/10 09:22:09;;;;;;;4.13;2.08;;;23.70;59.50;;;;;;4939981;29;20123;-80
2021/07/10 09:24:41;;;;;;;6.97;1.67;;;23.90;58.70;;;;;;4939858;29;20074;-81
2021/07/10 09:27:09;;;;;;;3.05;2.33;;;24.00;59.50;;;;;;4957263;29;20491;-80
2021/07/10 09:29:46;;;;;;;1.10;1.10;;;24.10;57.80;;;;;;4939637;29;20045;-80
2021/07/10 09:32:22;;;;;;;1.83;1.50;;;23.40;57.50;;;;;;4973476;28;20018;-80
2021/07/10 09:34:52;;;;;;;1.50;1.40;;;23.10;61.20;;;;;;4959067;28;20031;-80
2021/07/10 09:37:20;;;;;;;3.85;2.20;;;22.70;62.00;;;;;;4958998;28;20134;-80
2021/07/10 09:39:56;;;;;;;2.28;1.70;;;22.40;62.60;;;;;;4958699;28;20556;-80
2021/07/10 09:42:30;;;;;;;2.10;2.00;;;22.30;63.70;;;;;;4958864;28;20027;-80
2021/07/10 09:44:56;;;;;;;5.60;2.72;;;22.40;65.00;;;;;;4976169;28;20027;-80
2021/07/10 09:47:30;;;;;;;5.32;2.30;;;23.00;66.50;;;;;;4958914;28;20034;-80
2021/07/10 09:49:57;;;;;;;5.88;2.33;;;23.30;65.00;;;;;;4958727;28;20094;-80
2021/07/10 09:52:24;;;;;;;2.53;2.30;;;23.60;63.40;;;;;;4975956;28;20063;-80
2021/07/10 09:54:59;;;;;;;3.80;2.47;;;23.90;62.30;;;;;;4958520;28;20520;-80
2021/07/10 09:57:29;;;;;;;4.20;2.70;;;24.00;59.00;;;;;;4958661;28;20477;-80
2021/07/10 09:59:57;;;;;;;2.03;1.85;;;24.10;58.00;;;;;;4944205;29;20489;-80
2021/07/10 10:02:30;;;;;;;2.75;1.63;;;23.90;59.00;;;;;;4939315;29;20022;-80
2021/07/10 10:05:00;;;;;;;1.38;1.27;;;23.50;59.40;;;;;;4939268;29;20025;-80
2021/07/10 10:07:26;;;;;;;1.20;1.10;;;23.40;59.50;;;;;;4939211;29;20050;-80
2021/07/10 10:09:56;;;;;;;2.22;1.13;;;22.90;59.30;;;;;;4955434;28;20473;-80
2021/07/10 10:12:22;;;;;;;1.33;1.10;;;23.00;60.50;;;;;;4956466;29;20469;-80
2021/07/10 10:14:51;;;;;;;1.17;1.10;;;22.70;62.10;;;;;;4939103;29;20090;-80
2021/07/10 10:17:20;;;;;;;1.38;1.30;;;22.60;61.20;;;;;;4940095;29;20035;-80
2021/07/10 10:19:45;;;;;;;1.55;1.33;;;22.50;62.50;;;;;;4938797;29;20437;-80
2021/07/10 10:22:14;;;;;;;1.75;0.98;;;22.40;61.90;;;;;;4938947;29;20074;-80
2021/07/10 10:24:43;;;;;;;1.35;1.25;;;22.20;61.90;;;;;;4938681;29;20028;-80
2021/07/10 10:27:10;;;;;;;1.08;0.90;;;22.30;62.30;;;;;;4938808;29;20028;-80
2021/07/10 10:29:36;;;;;;;0.70;0.70;;;22.50;63.20;;;;;;4946930;28;20085;-80
2021/07/10 10:32:06;;;;;;;2.22;1.20;;;22.70;62.70;;;;;;4957929;28;20061;-81
2021/07/10 10:34:32;;;;;;;1.73;1.63;;;22.70;62.70;;;;;;4958077;28;20040;-81
2021/07/10 10:36:58;;;;;;;2.22;1.70;;;22.70;63.00;;;;;;4957798;28;20015;-80
2021/07/10 10:39:27;;;;;;;1.67;1.58;;;22.80;62.40;;;;;;4957558;28;20218;-80
2021/07/10 10:42:04;;;;;;;1.70;1.65;;;22.80;61.80;;;;;;4975078;28;20034;-80
2021/07/10 10:44:40;;;;;;;2.78;1.85;;;23.00;60.50;;;;;;4957685;28;20374;-80
2021/07/10 10:47:08;;;;;;;2.03;1.80;;;23.20;63.00;;;;;;4957714;28;20050;-80
2021/07/10 10:49:54;;;;;;;1.20;1.10;;;23.10;59.60;;;;;;4957483;28;20085;-80
2021/07/10 10:52:40;;;;;;;1.75;0.90;;;22.80;60.60;;;;;;4957691;28;20018;-80
2021/07/10 10:55:06;;;;;;;1.05;1.00;;;22.20;62.40;;;;;;4974938;28;20106;-80
2021/07/10 10:57:35;;;;;;;2.70;1.35;;;22.10;66.20;;;;;;4957328;28;20118;-80
2021/07/10 11:00:10;;;;;;;2.80;1.40;;;21.90;66.00;;;;;;4940226;29;20043;-80
2021/07/10 11:02:36;;;;;;;1.50;1.08;;;21.80;65.60;;;;;;4938206;29;20106;-80
2021/07/10 11:05:03;;;;;;;1.23;1.10;;;21.80;65.90;;;;;;4938502;29;20541;-80
2021/07/10 11:07:32;;;;;;;1.60;1.30;;;22.00;66.80;;;;;;4938209;29;20033;-80
2021/07/10 11:10:07;;;;;;;2.45;1.40;;;22.20;66.40;;;;;;4955308;29;20110;-80
2021/07/10 11:12:49;;;;;;;2.20;1.30;;;22.40;64.70;;;;;;4955492;29;20027;-80
2021/07/10 11:15:24;;;;;;;1.27;1.17;;;22.40;63.90;;;;;;4955324;29;20024;-80
2021/07/10 11:18:00;;;;;;;1.33;1.10;;;22.30;63.40;;;;;;4938025;29;20170;-82
2021/07/10 11:20:45;;;;;;;2.25;1.30;;;22.30;64.10;;;;;;4937141;28;20031;-80
2021/07/10 11:23:26;;;;;;;2.47;1.20;;;22.30;64.30;;;;;;4937869;29;20036;-80
2021/07/10 11:25:52;;;;;;;2.05;1.58;;;22.40;62.30;;;;;;4954771;29;20024;-80
2021/07/10 11:28:22;;;;;;;2.72;1.45;;;22.30;62.70;;;;;;4985723;28;20063;-80
2021/07/10 11:30:51;;;;;;;1.98;1.50;;;22.50;63.60;;;;;;4976288;28;20113;-80
2021/07/10 11:33:56;;;;;;;2.10;1.83;;;22.90;63.80;;;;;;4993714;28;20022;-80
2021/07/10 11:36:40;;;;;;;2.53;1.77;;;23.30;60.20;;;;;;4993754;28;20019;-80
2021/07/10 11:39:32;;;;;;;1.67;1.58;;;23.50;58.40;;;;;;4976201;28;20022;-80
2021/07/10 11:42:22;;;;;;;1.25;1.25;;;23.70;59.00;;;;;;4993545;28;20572;-80
2021/07/10 11:44:52;;;;;;;2.17;1.30;;;23.60;57.80;;;;;;4993479;28;20060;-80
2021/07/10 11:47:40;;;;;;;3.15;1.60;;;23.20;57.40;;;;;;4976211;28;20026;-81
2021/07/10 11:50:38;;;;;;;2.08;1.60;;;23.00;57.00;;;;;;4976085;28;20022;-80
2021/07/10 11:53:12;;;;;;;2.40;1.60;;;23.50;60.20;;;;;;4976112;28;20028;-80
2021/07/10 11:55:44;;;;;;;2.65;1.60;;;23.50;57.70;;;;;;4976078;28;20030;-80
2021/07/10 11:58:12;;;;;;;1.50;1.40;;;23.50;55.60;;;;;;4940626;28;20069;-80
2021/07/10 12:00:38;;;;;;;1.83;1.42;;;23.50;56.50;;;;;;4954723;29;20043;-80
2021/07/10 12:03:14;;;;;;;1.50;1.40;;;23.50;56.20;;;;;;4955266;28;20023;-80
2021/07/10 12:05:40;;;;;;;1.83;1.73;;;23.50;58.30;;;;;;4956595;28;20031;-80
2021/07/10 12:08:07;;;;;;;0.80;0.80;;;23.50;58.40;;;;;;4956424;28;20033;-80
2021/07/10 12:10:35;;;;;;;1.83;0.93;;;23.70;58.10;;;;;;4956406;28;20391;-81
2021/07/10 12:13:02;;;;;;;3.20;0.80;;;24.00;59.00;;;;;;4972644;28;20057;-80
2021/07/10 12:15:30;;;;;;;2.10;1.15;;;24.10;56.10;;;;;;4973804;28;20081;-80
2021/07/10 12:17:58;;;;;;;1.40;0.95;;;24.40;56.20;;;;;;4973819;28;20026;-80
2021/07/10 12:20:30;;;;;;;2.35;1.02;;;24.40;56.70;;;;;;4956319;28;20038;-81
2021/07/10 12:23:03;;;;;;;1.05;1.05;;;24.20;54.30;;;;;;4956551;28;20023;-80
2021/07/10 12:25:45;;;;;;;0.75;0.75;;;23.80;53.60;;;;;;4956409;28;20019;-80
2021/07/10 12:28:11;;;;;;;1.23;0.80;;;23.60;55.50;;;;;;4938655;28;20139;-80
2021/07/10 12:30:57;;;;;;;1.02;0.90;;;23.20;55.80;;;;;;4937230;29;20035;-80
2021/07/10 12:33:37;;;;;;;0.88;0.85;;;23.40;55.70;;;;;;4955916;28;20151;-80
2021/07/10 12:36:21;;;;;;;2.38;0.60;;;23.40;55.30;;;;;;4940803;29;20437;-81
2021/07/10 12:38:56;;;;;;;1.38;0.80;;;23.50;55.50;;;;;;4950660;28;20085;-80
2021/07/10 12:41:39;;;;;;;0.50;0.50;;;23.90;55.90;;;;;;4960035;28;20031;-80
2021/07/10 12:44:22;;;;;;;0.75;0.75;;;24.30;54.80;;;;;;4959876;28;20485;-81
2021/07/10 12:46:56;;;;;;;0.60;0.60;;;24.30;53.90;;;;;;4977282;28;20054;-80
2021/07/10 12:49:24;;;;;;;1.05;0.50;;;24.50;52.70;;;;;;4959790;28;20110;-80